sensor_id;sensor_type;location;lat;lon;timestamp;P1;durP1;ratioP1;P2;durP2;ratioP2
21099;SDS011;10708;50.824;4.408;2022-09-20T00:01:17;5.27;;;1.50;;
21099;SDS011;10708;50.824;4.408;2022-09-20T00:06:21;6.30;;;1.70;;
21099;SDS011;10708;50.824;4.408;2022-09-20T00:11:25;5.63;;;1.20;;
21099;SDS011;10708;50.824;4.408;2022-09-20T00:16:31;6.30;;;1.50;;
21099;SDS011;10708;50.824;4.408;2022-09-20T00:21:35;4.73;;;1.27;;
21099;SDS011;10708;50.824;4.408;2022-09-20T00:26:39;4.63;;;1.50;;
21099;SDS011;10708;50.824;4.408;2022-09-20T00:31:42;7.93;;;1.43;;
21099;SDS011;10708;50.824;4.408;2022-09-20T00:36:45;4.40;;;1.70;;
21099;SDS011;10708;50.824;4.408;2022-09-20T00:41:47;3.00;;;1.40;;
21099;SDS011;10708;50.824;4.408;2022-09-20T00:46:51;2.37;;;1.53;;
21099;SDS011;10708;50.824;4.408;2022-09-20T00:51:54;6.50;;;2.00;;
21099;SDS011;10708;50.824;4.408;2022-09-20T00:57:01;4.53;;;1.63;;
21099;SDS011;10708;50.824;4.408;2022-09-20T01:02:07;6.27;;;1.87;;
21099;SDS011;10708;50.824;4.408;2022-09-20T01:07:12;7.37;;;2.00;;
21099;SDS011;10708;50.824;4.408;2022-09-20T01:12:18;6.07;;;2.30;;
21099;SDS011;10708;50.824;4.408;2022-09-20T01:17:24;6.50;;;2.20;;
21099;SDS011;10708;50.824;4.408;2022-09-20T01:22:31;7.00;;;2.80;;
21099;SDS011;10708;50.824;4.408;2022-09-20T01:27:43;6.33;;;2.03;;
21099;SDS011;10708;50.824;4.408;2022-09-20T01:32:51;9.90;;;2.17;;
21099;SDS011;10708;50.824;4.408;2022-09-20T01:38:07;6.53;;;1.90;;
21099;SDS011;10708;50.824;4.408;2022-09-20T01:43:27;6.03;;;1.97;;
21099;SDS011;10708;50.824;4.408;2022-09-20T01:48:36;6.60;;;2.17;;
21099;SDS011;10708;50.824;4.408;2022-09-20T01:59:38;5.93;;;2.70;;
21099;SDS011;10708;50.824;4.408;2022-09-20T02:04:57;8.43;;;2.30;;
21099;SDS011;10708;50.824;4.408;2022-09-20T02:16:09;7.17;;;2.73;;
21099;SDS011;10708;50.824;4.408;2022-09-20T02:21:23;8.00;;;2.77;;
21099;SDS011;10708;50.824;4.408;2022-09-20T02:26:38;6.63;;;3.20;;
21099;SDS011;10708;50.824;4.408;2022-09-20T02:31:52;10.67;;;2.97;;
21099;SDS011;10708;50.824;4.408;2022-09-20T02:37:14;5.87;;;3.03;;
21099;SDS011;10708;50.824;4.408;2022-09-20T02:42:36;9.37;;;3.10;;
21099;SDS011;10708;50.824;4.408;2022-09-20T02:47:43;11.27;;;3.00;;
21099;SDS011;10708;50.824;4.408;2022-09-20T02:52:48;8.60;;;3.30;;
21099;SDS011;10708;50.824;4.408;2022-09-20T02:57:59;7.53;;;3.03;;
21099;SDS011;10708;50.824;4.408;2022-09-20T03:03:12;7.40;;;3.43;;
21099;SDS011;10708;50.824;4.408;2022-09-20T03:08:27;6.57;;;3.07;;
21099;SDS011;10708;50.824;4.408;2022-09-20T03:13:40;5.20;;;2.73;;
21099;SDS011;10708;50.824;4.408;2022-09-20T03:19:01;5.77;;;3.20;;
21099;SDS011;10708;50.824;4.408;2022-09-20T03:24:19;7.47;;;3.00;;
21099;SDS011;10708;50.824;4.408;2022-09-20T03:29:33;11.30;;;3.30;;
21099;SDS011;10708;50.824;4.408;2022-09-20T03:34:51;5.60;;;3.07;;
21099;SDS011;10708;50.824;4.408;2022-09-20T03:40:11;10.43;;;3.53;;
21099;SDS011;10708;50.824;4.408;2022-09-20T03:50:52;15.60;;;3.30;;
21099;SDS011;10708;50.824;4.408;2022-09-20T03:56:11;6.63;;;3.10;;
21099;SDS011;10708;50.824;4.408;2022-09-20T04:07:09;11.27;;;2.87;;
21099;SDS011;10708;50.824;4.408;2022-09-20T04:12:21;7.70;;;3.43;;
21099;SDS011;10708;50.824;4.408;2022-09-20T04:17:34;8.57;;;3.00;;
21099;SDS011;10708;50.824;4.408;2022-09-20T04:22:48;6.83;;;2.67;;
21099;SDS011;10708;50.824;4.408;2022-09-20T04:27:53;8.57;;;3.00;;
21099;SDS011;10708;50.824;4.408;2022-09-20T04:33:02;6.77;;;3.00;;
21099;SDS011;10708;50.824;4.408;2022-09-20T04:38:21;8.80;;;3.53;;
21099;SDS011;10708;50.824;4.408;2022-09-20T04:43:34;10.13;;;3.37;;
21099;SDS011;10708;50.824;4.408;2022-09-20T04:49:02;10.80;;;3.97;;
21099;SDS011;10708;50.824;4.408;2022-09-20T04:54:39;12.47;;;3.63;;
21099;SDS011;10708;50.824;4.408;2022-09-20T05:00:00;6.77;;;3.07;;
21099;SDS011;10708;50.824;4.408;2022-09-20T05:16:28;9.83;;;3.93;;
21099;SDS011;10708;50.824;4.408;2022-09-20T05:21:59;6.67;;;3.80;;
21099;SDS011;10708;50.824;4.408;2022-09-20T05:27:21;11.27;;;3.80;;
21099;SDS011;10708;50.824;4.408;2022-09-20T05:32:36;8.23;;;3.90;;
21099;SDS011;10708;50.824;4.408;2022-09-20T05:37:48;8.87;;;3.77;;
21099;SDS011;10708;50.824;4.408;2022-09-20T05:43:01;9.53;;;4.30;;
21099;SDS011;10708;50.824;4.408;2022-09-20T05:48:12;10.73;;;3.73;;
21099;SDS011;10708;50.824;4.408;2022-09-20T05:53:31;10.90;;;4.03;;
21099;SDS011;10708;50.824;4.408;2022-09-20T05:58:57;11.17;;;4.33;;
21099;SDS011;10708;50.824;4.408;2022-09-20T06:04:11;10.03;;;4.03;;
21099;SDS011;10708;50.824;4.408;2022-09-20T06:09:25;10.50;;;4.07;;
21099;SDS011;10708;50.824;4.408;2022-09-20T06:14:41;12.37;;;3.83;;
21099;SDS011;10708;50.824;4.408;2022-09-20T06:19:49;7.33;;;4.30;;
21099;SDS011;10708;50.824;4.408;2022-09-20T06:25:02;14.30;;;3.77;;
21099;SDS011;10708;50.824;4.408;2022-09-20T06:30:13;7.37;;;3.70;;
21099;SDS011;10708;50.824;4.408;2022-09-20T06:35:18;7.63;;;4.50;;
21099;SDS011;10708;50.824;4.408;2022-09-20T06:40:27;10.27;;;4.17;;
21099;SDS011;10708;50.824;4.408;2022-09-20T06:45:52;8.03;;;4.20;;
21099;SDS011;10708;50.824;4.408;2022-09-20T06:50:54;10.00;;;4.07;;
21099;SDS011;10708;50.824;4.408;2022-09-20T06:55:57;9.40;;;3.97;;
21099;SDS011;10708;50.824;4.408;2022-09-20T07:01:01;7.97;;;4.10;;
21099;SDS011;10708;50.824;4.408;2022-09-20T07:06:04;9.93;;;3.90;;
21099;SDS011;10708;50.824;4.408;2022-09-20T07:11:08;12.67;;;4.20;;
21099;SDS011;10708;50.824;4.408;2022-09-20T07:16:16;11.10;;;4.30;;
21099;SDS011;10708;50.824;4.408;2022-09-20T07:21:19;8.73;;;4.00;;
21099;SDS011;10708;50.824;4.408;2022-09-20T07:26:23;11.53;;;4.40;;
21099;SDS011;10708;50.824;4.408;2022-09-20T07:31:29;10.80;;;4.20;;
21099;SDS011;10708;50.824;4.408;2022-09-20T07:36:31;7.60;;;4.10;;
21099;SDS011;10708;50.824;4.408;2022-09-20T07:41:33;11.07;;;4.20;;
21099;SDS011;10708;50.824;4.408;2022-09-20T07:46:37;10.23;;;4.10;;
21099;SDS011;10708;50.824;4.408;2022-09-20T07:51:39;9.37;;;3.97;;
21099;SDS011;10708;50.824;4.408;2022-09-20T07:56:42;7.75;;;3.67;;
21099;SDS011;10708;50.824;4.408;2022-09-20T08:01:46;7.50;;;4.18;;
21099;SDS011;10708;50.824;4.408;2022-09-20T08:06:49;9.35;;;3.13;;
21099;SDS011;10708;50.824;4.408;2022-09-20T08:11:51;5.80;;;3.58;;
21099;SDS011;10708;50.824;4.408;2022-09-20T08:16:57;8.30;;;3.20;;
21099;SDS011;10708;50.824;4.408;2022-09-20T08:22:00;7.60;;;3.47;;
21099;SDS011;10708;50.824;4.408;2022-09-20T08:27:02;10.57;;;4.45;;
21099;SDS011;10708;50.824;4.408;2022-09-20T08:32:06;11.30;;;4.07;;
21099;SDS011;10708;50.824;4.408;2022-09-20T08:37:08;8.13;;;3.85;;
21099;SDS011;10708;50.824;4.408;2022-09-20T08:42:12;8.40;;;3.70;;
21099;SDS011;10708;50.824;4.408;2022-09-20T08:47:23;11.15;;;4.40;;
21099;SDS011;10708;50.824;4.408;2022-09-20T08:52:28;10.93;;;3.60;;
21099;SDS011;10708;50.824;4.408;2022-09-20T08:57:32;8.10;;;3.65;;
21099;SDS011;10708;50.824;4.408;2022-09-20T09:02:37;9.30;;;3.67;;
21099;SDS011;10708;50.824;4.408;2022-09-20T09:07:40;8.70;;;3.67;;
21099;SDS011;10708;50.824;4.408;2022-09-20T09:12:42;5.43;;;3.03;;
21099;SDS011;10708;50.824;4.408;2022-09-20T09:17:48;9.55;;;3.33;;
21099;SDS011;10708;50.824;4.408;2022-09-20T09:22:58;8.25;;;3.10;;
21099;SDS011;10708;50.824;4.408;2022-09-20T09:28:03;8.18;;;3.00;;
21099;SDS011;10708;50.824;4.408;2022-09-20T09:33:23;9.63;;;3.17;;
21099;SDS011;10708;50.824;4.408;2022-09-20T09:38:28;21.63;;;5.70;;
21099;SDS011;10708;50.824;4.408;2022-09-20T09:43:32;6.03;;;2.88;;
21099;SDS011;10708;50.824;4.408;2022-09-20T09:48:37;6.60;;;2.95;;
21099;SDS011;10708;50.824;4.408;2022-09-20T09:53:43;10.38;;;2.78;;
21099;SDS011;10708;50.824;4.408;2022-09-20T09:58:50;8.07;;;2.30;;
21099;SDS011;10708;50.824;4.408;2022-09-20T10:04:13;8.90;;;2.30;;
21099;SDS011;10708;50.824;4.408;2022-09-20T10:09:24;5.28;;;2.42;;
21099;SDS011;10708;50.824;4.408;2022-09-20T10:14:39;5.40;;;2.05;;
21099;SDS011;10708;50.824;4.408;2022-09-20T10:20:05;6.65;;;1.90;;
21099;SDS011;10708;50.824;4.408;2022-09-20T10:25:30;7.93;;;2.30;;
21099;SDS011;10708;50.824;4.408;2022-09-20T10:30:43;5.40;;;1.70;;
21099;SDS011;10708;50.824;4.408;2022-09-20T10:35:58;9.30;;;1.75;;
21099;SDS011;10708;50.824;4.408;2022-09-20T10:41:12;4.95;;;1.15;;
21099;SDS011;10708;50.824;4.408;2022-09-20T10:46:44;2.85;;;1.23;;
21099;SDS011;10708;50.824;4.408;2022-09-20T10:52:03;5.80;;;1.48;;
21099;SDS011;10708;50.824;4.408;2022-09-20T10:57:27;8.65;;;1.60;;
21099;SDS011;10708;50.824;4.408;2022-09-20T11:02:47;7.00;;;1.88;;
21099;SDS011;10708;50.824;4.408;2022-09-20T11:08:01;5.78;;;1.85;;
21099;SDS011;10708;50.824;4.408;2022-09-20T11:13:11;3.63;;;1.50;;
21099;SDS011;10708;50.824;4.408;2022-09-20T11:18:23;7.38;;;2.20;;
21099;SDS011;10708;50.824;4.408;2022-09-20T11:23:38;5.35;;;1.50;;
21099;SDS011;10708;50.824;4.408;2022-09-20T11:28:47;6.47;;;1.52;;
21099;SDS011;10708;50.824;4.408;2022-09-20T11:33:52;8.55;;;2.38;;
21099;SDS011;10708;50.824;4.408;2022-09-20T11:39:01;6.75;;;3.35;;
21099;SDS011;10708;50.824;4.408;2022-09-20T11:44:15;5.28;;;2.63;;
21099;SDS011;10708;50.824;4.408;2022-09-20T11:49:39;5.45;;;2.17;;
21099;SDS011;10708;50.824;4.408;2022-09-20T11:54:58;4.97;;;2.08;;
21099;SDS011;10708;50.824;4.408;2022-09-20T12:00:25;9.00;;;2.00;;
21099;SDS011;10708;50.824;4.408;2022-09-20T12:05:31;4.88;;;1.77;;
21099;SDS011;10708;50.824;4.408;2022-09-20T12:10:38;4.97;;;2.10;;
21099;SDS011;10708;50.824;4.408;2022-09-20T12:15:41;3.35;;;1.83;;
21099;SDS011;10708;50.824;4.408;2022-09-20T12:20:56;6.53;;;2.05;;
21099;SDS011;10708;50.824;4.408;2022-09-20T12:31:46;3.08;;;1.50;;
21099;SDS011;10708;50.824;4.408;2022-09-20T12:42:25;6.28;;;2.20;;
21099;SDS011;10708;50.824;4.408;2022-09-20T12:47:31;10.10;;;2.53;;
21099;SDS011;10708;50.824;4.408;2022-09-20T12:52:45;5.85;;;2.67;;
21099;SDS011;10708;50.824;4.408;2022-09-20T12:58:02;9.55;;;2.78;;
21099;SDS011;10708;50.824;4.408;2022-09-20T13:03:11;2.53;;;1.80;;
21099;SDS011;10708;50.824;4.408;2022-09-20T13:08:24;4.07;;;2.00;;
21099;SDS011;10708;50.824;4.408;2022-09-20T13:13:32;6.25;;;1.83;;
21099;SDS011;10708;50.824;4.408;2022-09-20T13:18:40;7.15;;;2.00;;
21099;SDS011;10708;50.824;4.408;2022-09-20T13:23:44;2.15;;;1.60;;
21099;SDS011;10708;50.824;4.408;2022-09-20T13:28:51;3.35;;;1.30;;
21099;SDS011;10708;50.824;4.408;2022-09-20T13:39:23;4.90;;;1.23;;
21099;SDS011;10708;50.824;4.408;2022-09-20T13:44:33;2.08;;;1.10;;
21099;SDS011;10708;50.824;4.408;2022-09-20T13:49:41;6.38;;;1.10;;
21099;SDS011;10708;50.824;4.408;2022-09-20T13:54:44;5.22;;;1.10;;
21099;SDS011;10708;50.824;4.408;2022-09-20T13:59:47;4.38;;;1.20;;
21099;SDS011;10708;50.824;4.408;2022-09-20T14:04:52;3.40;;;0.90;;
21099;SDS011;10708;50.824;4.408;2022-09-20T14:09:57;3.35;;;1.17;;
21099;SDS011;10708;50.824;4.408;2022-09-20T14:15:01;4.25;;;1.00;;
21099;SDS011;10708;50.824;4.408;2022-09-20T14:20:11;3.03;;;1.17;;
21099;SDS011;10708;50.824;4.408;2022-09-20T14:25:18;3.75;;;0.93;;
21099;SDS011;10708;50.824;4.408;2022-09-20T14:30:29;8.70;;;1.55;;
21099;SDS011;10708;50.824;4.408;2022-09-20T14:35:33;5.28;;;0.90;;
21099;SDS011;10708;50.824;4.408;2022-09-20T14:40:39;3.38;;;0.82;;
21099;SDS011;10708;50.824;4.408;2022-09-20T14:45:49;3.03;;;1.15;;
21099;SDS011;10708;50.824;4.408;2022-09-20T14:51:07;3.65;;;0.98;;
21099;SDS011;10708;50.824;4.408;2022-09-20T14:56:13;9.07;;;1.35;;
21099;SDS011;10708;50.824;4.408;2022-09-20T15:01:20;4.82;;;0.80;;
21099;SDS011;10708;50.824;4.408;2022-09-20T15:06:24;5.97;;;1.15;;
21099;SDS011;10708;50.824;4.408;2022-09-20T15:11:27;4.13;;;1.00;;
21099;SDS011;10708;50.824;4.408;2022-09-20T15:16:31;1.85;;;0.63;;
21099;SDS011;10708;50.824;4.408;2022-09-20T15:21:34;4.88;;;1.13;;
21099;SDS011;10708;50.824;4.408;2022-09-20T15:26:37;6.15;;;1.05;;
21099;SDS011;10708;50.824;4.408;2022-09-20T15:31:40;4.22;;;1.08;;
21099;SDS011;10708;50.824;4.408;2022-09-20T15:36:43;4.78;;;1.20;;
21099;SDS011;10708;50.824;4.408;2022-09-20T15:41:46;4.70;;;1.40;;
21099;SDS011;10708;50.824;4.408;2022-09-20T15:46:50;3.65;;;1.60;;
21099;SDS011;10708;50.824;4.408;2022-09-20T15:51:55;4.65;;;1.25;;
21099;SDS011;10708;50.824;4.408;2022-09-20T15:56:58;3.92;;;1.23;;
21099;SDS011;10708;50.824;4.408;2022-09-20T16:02:01;2.65;;;0.82;;
21099;SDS011;10708;50.824;4.408;2022-09-20T16:07:04;2.80;;;0.95;;
21099;SDS011;10708;50.824;4.408;2022-09-20T16:12:10;4.32;;;1.05;;
21099;SDS011;10708;50.824;4.408;2022-09-20T16:17:17;4.45;;;1.05;;
21099;SDS011;10708;50.824;4.408;2022-09-20T16:22:39;3.80;;;1.00;;
21099;SDS011;10708;50.824;4.408;2022-09-20T16:27:41;5.03;;;1.23;;
21099;SDS011;10708;50.824;4.408;2022-09-20T16:32:45;4.07;;;1.00;;
21099;SDS011;10708;50.824;4.408;2022-09-20T16:37:47;3.92;;;0.93;;
21099;SDS011;10708;50.824;4.408;2022-09-20T16:42:50;2.72;;;1.40;;
21099;SDS011;10708;50.824;4.408;2022-09-20T16:47:56;4.25;;;1.10;;
21099;SDS011;10708;50.824;4.408;2022-09-20T16:53:02;5.45;;;1.38;;
21099;SDS011;10708;50.824;4.408;2022-09-20T16:58:04;5.55;;;1.10;;
21099;SDS011;10708;50.824;4.408;2022-09-20T17:03:10;4.82;;;0.95;;
21099;SDS011;10708;50.824;4.408;2022-09-20T17:08:12;5.28;;;1.30;;
21099;SDS011;10708;50.824;4.408;2022-09-20T17:13:14;2.90;;;1.23;;
21099;SDS011;10708;50.824;4.408;2022-09-20T17:18:18;6.18;;;1.20;;
21099;SDS011;10708;50.824;4.408;2022-09-20T17:23:21;6.15;;;1.77;;
21099;SDS011;10708;50.824;4.408;2022-09-20T17:28:24;3.05;;;1.35;;
21099;SDS011;10708;50.824;4.408;2022-09-20T17:33:27;2.75;;;1.60;;
21099;SDS011;10708;50.824;4.408;2022-09-20T17:38:31;3.67;;;1.30;;
21099;SDS011;10708;50.824;4.408;2022-09-20T17:43:35;4.28;;;1.50;;
21099;SDS011;10708;50.824;4.408;2022-09-20T17:48:40;4.88;;;1.30;;
21099;SDS011;10708;50.824;4.408;2022-09-20T17:53:48;8.65;;;1.60;;
21099;SDS011;10708;50.824;4.408;2022-09-20T17:58:51;3.85;;;1.73;;
21099;SDS011;10708;50.824;4.408;2022-09-20T18:03:55;5.57;;;1.33;;
21099;SDS011;10708;50.824;4.408;2022-09-20T18:09:00;3.08;;;1.52;;
21099;SDS011;10708;50.824;4.408;2022-09-20T18:14:04;5.65;;;1.80;;
21099;SDS011;10708;50.824;4.408;2022-09-20T18:19:11;7.32;;;1.80;;
21099;SDS011;10708;50.824;4.408;2022-09-20T18:24:15;3.10;;;1.40;;
21099;SDS011;10708;50.824;4.408;2022-09-20T18:29:17;4.60;;;2.05;;
21099;SDS011;10708;50.824;4.408;2022-09-20T18:34:21;7.45;;;1.88;;
21099;SDS011;10708;50.824;4.408;2022-09-20T18:39:28;6.67;;;1.80;;
21099;SDS011;10708;50.824;4.408;2022-09-20T18:44:32;3.17;;;1.58;;
21099;SDS011;10708;50.824;4.408;2022-09-20T18:49:36;5.10;;;1.90;;
21099;SDS011;10708;50.824;4.408;2022-09-20T18:54:38;4.45;;;2.00;;
21099;SDS011;10708;50.824;4.408;2022-09-20T18:59:43;2.92;;;1.80;;
21099;SDS011;10708;50.824;4.408;2022-09-20T19:04:55;7.07;;;2.28;;
21099;SDS011;10708;50.824;4.408;2022-09-20T19:10:07;7.30;;;2.20;;
21099;SDS011;10708;50.824;4.408;2022-09-20T19:15:18;5.27;;;2.00;;
21099;SDS011;10708;50.824;4.408;2022-09-20T19:20:34;4.80;;;2.13;;
21099;SDS011;10708;50.824;4.408;2022-09-20T19:25:44;5.47;;;2.70;;
21099;SDS011;10708;50.824;4.408;2022-09-20T19:30:48;9.52;;;2.20;;
21099;SDS011;10708;50.824;4.408;2022-09-20T19:35:52;5.15;;;2.38;;
21099;SDS011;10708;50.824;4.408;2022-09-20T19:40:57;6.28;;;2.85;;
21099;SDS011;10708;50.824;4.408;2022-09-20T19:46:10;6.75;;;2.58;;
21099;SDS011;10708;50.824;4.408;2022-09-20T19:51:21;7.15;;;2.70;;
21099;SDS011;10708;50.824;4.408;2022-09-20T19:56:24;7.30;;;3.13;;
21099;SDS011;10708;50.824;4.408;2022-09-20T20:01:29;11.40;;;3.00;;
21099;SDS011;10708;50.824;4.408;2022-09-20T20:06:34;6.93;;;2.70;;
21099;SDS011;10708;50.824;4.408;2022-09-20T20:11:44;8.77;;;2.53;;
21099;SDS011;10708;50.824;4.408;2022-09-20T20:16:59;6.40;;;2.27;;
21099;SDS011;10708;50.824;4.408;2022-09-20T20:22:10;7.45;;;2.45;;
21099;SDS011;10708;50.824;4.408;2022-09-20T20:27:23;5.83;;;2.40;;
21099;SDS011;10708;50.824;4.408;2022-09-20T20:32:27;6.90;;;3.13;;
21099;SDS011;10708;50.824;4.408;2022-09-20T20:37:31;11.83;;;4.80;;
21099;SDS011;10708;50.824;4.408;2022-09-20T20:42:34;8.37;;;4.87;;
21099;SDS011;10708;50.824;4.408;2022-09-20T20:47:37;13.37;;;6.00;;
21099;SDS011;10708;50.824;4.408;2022-09-20T20:52:41;17.53;;;6.10;;
21099;SDS011;10708;50.824;4.408;2022-09-20T20:57:46;16.27;;;6.73;;
21099;SDS011;10708;50.824;4.408;2022-09-20T21:02:57;11.73;;;5.97;;
21099;SDS011;10708;50.824;4.408;2022-09-20T21:08:03;11.43;;;5.87;;
21099;SDS011;10708;50.824;4.408;2022-09-20T21:13:05;12.13;;;5.87;;
21099;SDS011;10708;50.824;4.408;2022-09-20T21:18:08;12.93;;;6.10;;
21099;SDS011;10708;50.824;4.408;2022-09-20T21:23:12;13.97;;;4.90;;
21099;SDS011;10708;50.824;4.408;2022-09-20T21:28:14;10.67;;;5.47;;
21099;SDS011;10708;50.824;4.408;2022-09-20T21:33:16;11.97;;;5.57;;
21099;SDS011;10708;50.824;4.408;2022-09-20T21:38:20;11.40;;;5.73;;
21099;SDS011;10708;50.824;4.408;2022-09-20T21:43:22;10.93;;;5.43;;
21099;SDS011;10708;50.824;4.408;2022-09-20T21:48:26;9.40;;;5.30;;
21099;SDS011;10708;50.824;4.408;2022-09-20T21:53:38;16.23;;;5.90;;
21099;SDS011;10708;50.824;4.408;2022-09-20T21:58:40;11.77;;;6.10;;
21099;SDS011;10708;50.824;4.408;2022-09-20T22:03:43;11.33;;;5.53;;
21099;SDS011;10708;50.824;4.408;2022-09-20T22:08:49;12.27;;;6.17;;
21099;SDS011;10708;50.824;4.408;2022-09-20T22:13:53;15.47;;;5.80;;
21099;SDS011;10708;50.824;4.408;2022-09-20T22:18:56;11.53;;;5.80;;
21099;SDS011;10708;50.824;4.408;2022-09-20T22:24:02;11.50;;;5.60;;
21099;SDS011;10708;50.824;4.408;2022-09-20T22:29:07;10.30;;;5.07;;
21099;SDS011;10708;50.824;4.408;2022-09-20T22:34:12;10.07;;;4.97;;
21099;SDS011;10708;50.824;4.408;2022-09-20T22:39:16;11.43;;;4.97;;
21099;SDS011;10708;50.824;4.408;2022-09-20T22:44:19;13.17;;;4.50;;
21099;SDS011;10708;50.824;4.408;2022-09-20T22:49:22;9.13;;;4.90;;
21099;SDS011;10708;50.824;4.408;2022-09-20T22:54:25;11.33;;;4.90;;
21099;SDS011;10708;50.824;4.408;2022-09-20T22:59:28;9.00;;;4.87;;
21099;SDS011;10708;50.824;4.408;2022-09-20T23:04:30;12.47;;;4.90;;
21099;SDS011;10708;50.824;4.408;2022-09-20T23:09:34;9.17;;;5.10;;
21099;SDS011;10708;50.824;4.408;2022-09-20T23:14:37;9.50;;;4.60;;
21099;SDS011;10708;50.824;4.408;2022-09-20T23:19:39;9.87;;;4.50;;
21099;SDS011;10708;50.824;4.408;2022-09-20T23:24:43;8.73;;;4.60;;
21099;SDS011;10708;50.824;4.408;2022-09-20T23:29:46;9.43;;;4.43;;
21099;SDS011;10708;50.824;4.408;2022-09-20T23:34:48;8.57;;;3.63;;
21099;SDS011;10708;50.824;4.408;2022-09-20T23:39:52;9.27;;;3.73;;
21099;SDS011;10708;50.824;4.408;2022-09-20T23:44:54;7.43;;;4.07;;
21099;SDS011;10708;50.824;4.408;2022-09-20T23:49:56;11.23;;;4.00;;
21099;SDS011;10708;50.824;4.408;2022-09-20T23:55:00;6.37;;;3.73;;
